Tuesday, April 24, 2018, 4:41 AM EDT
Back to Local

KFIT, Fitchburg, Fitchburg Municipal Airport

Location: Leominster, MA, United States Lat: 42.552
Local Time: 4:41 AM EDT ( 8:41 GMT) Lon: -71.756
Time Zone: US/Eastern Elev: 347 ft

Show me the last for .
Show Decoded

2018-04-24 03:52 METAR KFIT 240752Z AUTO 29006KT 10SM CLR 08/M01 A3039 RMK AO2 SLP291 T00781011 =
2018-04-24 02:52 METAR KFIT 240652Z AUTO 00000KT 10SM CLR 05/M03 A3039 RMK AO2 SLP292 T00501028 =
2018-04-24 01:52 METAR KFIT 240552Z AUTO 00000KT 10SM CLR 06/M03 A3040 RMK AO2 SLP294 T00561033
                 10167 20056 58008 =
2018-04-24 00:52 METAR KFIT 240452Z AUTO 16004KT 10SM CLR 08/M06 A3041 RMK AO2 SLP299 T00831056
                 402061006 =
2018-04-23 23:52 METAR KFIT 240352Z AUTO 18004KT 10SM CLR 10/M06 A3042 RMK AO2 SLP301 T01001056 =
2018-04-23 22:52 METAR KFIT 240252Z AUTO 17007KT 10SM CLR 12/M05 A3042 RMK AO2 SLP303 T01171050
                 50013 =
2018-04-23 21:52 METAR KFIT 240152Z AUTO 16007KT 10SM CLR 13/M06 A3042 RMK AO2 SLP304 T01331056 =
2018-04-23 20:52 METAR KFIT 240052Z AUTO 16010KT 10SM CLR 15/M05 A3041 RMK AO2 SLP299 T01501050 =
2018-04-23 19:52 METAR KFIT 232352Z AUTO 18014G21KT 10SM CLR 17/M05 A3038 RMK AO2 SLP290
                 T01671050 10206 20167 55000 =
2018-04-23 18:52 METAR KFIT 232252Z AUTO 16008KT 10SM CLR 19/M12 A3037 RMK AO2 SLP286 T01941117 =
2018-04-23 17:52 METAR KFIT 232152Z AUTO 16012KT 10SM CLR 21/M11 A3037 RMK AO2 SLP288 T02061106 =
2018-04-23 16:52 METAR KFIT 232052Z AUTO VRB05KT 10SM CLR 21/M10 A3038 RMK AO2 SLP291 T02061100
                 56019 =
2018-04-23 15:52 METAR KFIT 231952Z AUTO 10SM CLR 20/M10 A3039 RMK AO2 SLP293 T02001100 =
2018-04-23 14:52 METAR KFIT 231852Z AUTO VRB03KT 10SM CLR 19/M09 A3042 RMK AO2 SLP302 T01941094 =
2018-04-23 13:52 METAR KFIT 231752Z AUTO 10004KT 10SM CLR 19/M09 A3044 RMK AO2 SLP311 60000
                 T01891094 10200 20078 58019 =
2018-04-23 12:52 METAR KFIT 231652Z AUTO 13005KT 10SM CLR 18/M09 A3046 RMK AO2 SLP318 T01781089 =
2018-04-23 11:52 METAR KFIT 231552Z AUTO VRB03KT 10SM CLR 17/M09 A3049 RMK AO2 RAB21E30 SLP325
                 P0000 T01671089 =
2018-04-23 10:52 METAR KFIT 231452Z AUTO 12004KT 10SM CLR 14/M08 A3050 RMK AO2 SLP329 T01441083
                 58001 =
2018-04-23 09:52 METAR KFIT 231352Z AUTO 00000KT 10SM CLR 14/M07 A3051 RMK AO2 SLP333 T01391072 =
2018-04-23 08:52 METAR KFIT 231252Z AUTO 00000KT 10SM CLR 13/M06 A3051 RMK AO2 SLP333 T01281056 =
2018-04-23 07:52 METAR KFIT 231152Z AUTO 00000KT 10SM CLR 07/M03 A3050 RMK AO2 SLP330 T00721028
                 10072 21006 52017 =
2018-04-23 06:52 METAR KFIT 231052Z AUTO 33004KT 10SM CLR 02/M02 A3049 RMK AO2 SLP326 T00221022 =
2018-04-23 05:52 METAR KFIT 230952Z AUTO 00000KT 10SM CLR 00/M04 A3047 RMK AO2 SLP319 T00001039 =
2018-04-23 04:52 METAR KFIT 230852Z AUTO 32003KT 10SM CLR 01/M04 A3045 RMK AO2 SLP313 T00061039
                 53010 =

Support USWX by starting your Amazon purchase here.